PWSweather.com
Personal Weather Stations
Station Observations
EPTALOFOS
Ampelokipi, ThessalonikiGR 56123

AmpelokipiThessalonikiGR 56123

Lat: 40.6541816, Lon: 22.92589780000003

Elevation: 137

Station Type: Fine Offset WH-3080-Solar

http://www.dmark.gr

Latest ConditionsUpdated 9:30:01 AM GMT+02:02 Thursday, Dec 12, 2019
Currently Today's Max Today's Min Today's Average
Temperature 48.2°F9.0°C 48.2°F9.0°C 45.3°F7.4°C 46.7°F8.2°C
Dew Point 44.8°F7.1°C 45.1°F7.3°C 43.4°F6.3°C 44.2°F6.8°C
Winds 4.3 mph NNE6.9 kmh NNE 6.6 mph -10.6 kmh - - 4.2 mph 6.8 kmh
Wind Gusts 5.4 mph8.7 kmh 7.6 mph12.2 kmh - -
Humidity 88% 99% 87% 91%
Pressure 29.75 in1007.5 mb 29.82 in1009.8 mb 29.73 in1006.8 mb -
Hour Temp Dew Point Humidity Winds Wind Gusts Pressure Precip Precip Rate Daily Precip Total
09:30 AM 48.2°F9.0°C 44.8°F7.1°C 88% 4.3 mph NNE6.9 kmh NNE 5.4 mph8.7 kmh 29.75 in1007.5 mb 0.00 in0.0 mm 0.00 in0.0 mm 0.02 in0.5 mm
09:00 AM 47.8°F8.8°C 44.8°F7.1°C 89% 6.6 mph NNE10.6 kmh NNE 7.6 mph12.2 kmh 29.74 in1007.1 mb 0.00 in0.0 mm 0.00 in0.0 mm 0.02 in0.5 mm
08:30 AM 47.5°F8.6°C 44.7°F7.1°C 90% 4.3 mph N6.9 kmh N 5.4 mph8.7 kmh 29.74 in1007.1 mb 0.00 in0.0 mm 0.00 in0.0 mm 0.02 in0.5 mm
08:00 AM 47.5°F8.6°C 44.7°F7.1°C 90% 3.8 mph WNW6.1 kmh WNW 3.8 mph6.1 kmh 29.74 in1007.1 mb 0.00 in0.0 mm 0.00 in0.0 mm 0.02 in0.5 mm
07:30 AM 47.3°F8.5°C 44.5°F6.9°C 90% 4.5 mph NW7.2 kmh NW 6.0 mph9.7 kmh 29.74 in1007.1 mb 0.00 in0.0 mm 0.00 in0.0 mm 0.02 in0.5 mm
07:00 AM 47.1°F8.4°C 44.0°F6.7°C 89% 2.5 mph N4.0 kmh N 3.1 mph5.0 kmh 29.73 in1006.8 mb 0.00 in0.0 mm 0.00 in0.0 mm 0.02 in0.5 mm
06:30 AM 47.1°F8.4°C 44.0°F6.7°C 89% 3.6 mph NW5.8 kmh NW 4.5 mph7.2 kmh 29.74 in1007.1 mb 0.00 in0.0 mm 0.00 in0.0 mm 0.02 in0.5 mm
06:00 AM 47.3°F8.5°C 43.6°F6.4°C 87% 5.4 mph NNW8.7 kmh NNW 6.9 mph11.1 kmh 29.74 in1007.1 mb 0.00 in0.0 mm 0.00 in0.0 mm 0.02 in0.5 mm
05:30 AM 47.3°F8.5°C 43.9°F6.6°C 88% 4.9 mph N7.9 kmh N 5.4 mph8.7 kmh 29.75 in1007.5 mb 0.00 in0.0 mm 0.00 in0.0 mm 0.02 in0.5 mm
05:00 AM 46.9°F8.3°C 43.6°F6.4°C 88% 3.4 mph NW5.5 kmh NW 4.5 mph7.2 kmh 29.75 in1007.5 mb 0.00 in0.0 mm 0.00 in0.0 mm 0.02 in0.5 mm
04:30 AM 46.8°F8.2°C 43.4°F6.3°C 88% 4.9 mph NW7.9 kmh NW 6.0 mph9.7 kmh 29.75 in1007.5 mb 0.00 in0.0 mm 0.00 in0.0 mm 0.02 in0.5 mm
04:00 AM 46.8°F8.2°C 43.7°F6.5°C 89% 3.0 mph NW4.8 kmh NW 3.8 mph6.1 kmh 29.77 in1008.1 mb 0.00 in0.0 mm 0.00 in0.0 mm 0.02 in0.5 mm
03:30 AM 46.6°F8.1°C 44.1°F6.7°C 91% 5.4 mph NW8.7 kmh NW 5.4 mph8.7 kmh 29.77 in1008.1 mb 0.00 in0.0 mm 0.00 in0.0 mm 0.02 in0.5 mm
03:00 AM 46.0°F7.8°C 44.1°F6.7°C 93% 4.1 mph NW6.6 kmh NW 4.5 mph7.2 kmh 29.79 in1008.8 mb 0.00 in0.0 mm 0.00 in0.0 mm 0.02 in0.5 mm
02:30 AM 46.0°F7.8°C 44.4°F6.9°C 94% 3.4 mph N5.5 kmh N 4.5 mph7.2 kmh 29.79 in1008.8 mb 0.00 in0.0 mm 0.00 in0.0 mm 0.02 in0.5 mm
02:00 AM 45.9°F7.7°C 44.0°F6.7°C 93% 4.9 mph NW7.9 kmh NW 7.6 mph12.2 kmh 29.79 in1008.8 mb 0.00 in0.0 mm 0.00 in0.0 mm 0.02 in0.5 mm
01:30 AM 45.9°F7.7°C 44.0°F6.7°C 93% 2.5 mph NW4.0 kmh NW 3.1 mph5.0 kmh 29.80 in1009.1 mb 0.00 in0.0 mm 0.00 in0.0 mm 0.02 in0.5 mm
01:00 AM 45.7°F7.6°C 44.3°F6.8°C 95% 4.8 mph NNW7.7 kmh NNW 7.6 mph12.2 kmh 29.80 in1009.1 mb 0.00 in0.0 mm 0.00 in0.0 mm 0.02 in0.5 mm
12:30 AM 45.7°F7.6°C 44.9°F7.2°C 97% 5.6 mph NW9.0 kmh NW 6.9 mph11.1 kmh 29.80 in1009.1 mb 0.00 in0.0 mm 0.00 in0.0 mm 0.02 in0.5 mm
12:00 AM 45.3°F7.4°C 45.1°F7.3°C 99% 1.8 mph N2.9 kmh N 2.2 mph3.5 kmh 29.82 in1009.8 mb 0.02 in0.5 mm 0.00 in0.0 mm 0.02 in0.5 mm